Time;durP1;ratioP1;P1;durP2;ratioP2;P2;SDS_P1;SDS_P2;PMS_P1;PMS_P2;Temp;Humidity;BMP_temperature;BMP_pressure;BME280_temperature;BME280_humidity;BME280_pressure;Samples;Min_cycle;Max_cycle;Signal;HPM_P1;HPM_P2
2022/04/16 00:02:21;;;;;;;;;;;;;;;;;;5106354;28;1215;-74
2022/04/16 00:04:47;;;;;;;;;;;;;;;;;;5106442;28;1040;-74
2022/04/16 00:07:13;;;;;;;;;;;;;;;;;;5105919;28;1926;-73
2022/04/16 00:09:39;;;;;;;;;;;;;;;;;;5108944;27;1134;-74
2022/04/16 00:12:05;;;;;;;;;;;;;;;;;;5122395;27;1194;-75
2022/04/16 00:14:31;;;;;;;;;;;;;;;;;;5123042;27;1272;-73
2022/04/16 00:16:58;;;;;;;;;;;;;;;;;;5113990;27;1263;-75
2022/04/16 00:19:23;;;;;;;;;;;;;;;;;;5089023;28;1532;-74
2022/04/16 00:21:48;;;;;;;;;;;;;;;;;;5115704;27;1407;-74
2022/04/16 00:24:14;;;;;;;;;;;;;;;;;;5107126;27;1141;-74
2022/04/16 00:26:41;;;;;;;;;;;;;;;;;;5081857;28;1336;-74
2022/04/16 00:29:07;;;;;;;;;;;;;;;;;;5105969;27;1875;-74
2022/04/16 00:31:34;;;;;;;;;;;;;;;;;;5125914;27;1167;-73
2022/04/16 00:34:01;;;;;;;;;;;;;;;;;;5091744;27;1230;-74
2022/04/16 00:36:26;;;;;;;;;;;;;;;;;;5126763;27;1202;-75
2022/04/16 00:38:51;;;;;;;;;;;;;;;;;;5107059;27;1229;-75
2022/04/16 00:41:17;;;;;;;;;;;;;;;;;;5121014;27;1158;-74
2022/04/16 00:43:43;;;;;;;;;;;;;;;;;;5106548;27;1508;-73
2022/04/16 00:46:09;;;;;;;;;;;;;;;;;;5108601;27;1316;-74
2022/04/16 00:48:35;;;;;;;;;;;;;;;;;;5117357;27;1967;-74
2022/04/16 00:51:00;;;;;;;;;;;;;;;;;;5087044;28;1227;-74
2022/04/16 00:53:27;;;;;;;;;;;;;;;;;;5108760;28;1155;-74
2022/04/16 00:55:52;;;;;;;;;;;;;;;;;;5106663;28;1127;-73
2022/04/16 00:58:21;;;;;;;;;;;;;;;;;;5119724;27;1174;-73
2022/04/16 01:00:46;;;;;;;;;;;;;;;;;;5086930;28;1219;-74
2022/04/16 01:03:11;;;;;;;;;;;;;;;;;;5088827;28;1541;-74
2022/04/16 01:05:40;;;;;;;;;;;;;;;;;;5112109;28;1175;-74
2022/04/16 01:08:05;;;;;;;;;;;;;;;;;;5126223;27;1889;-74
2022/04/16 01:10:32;;;;;;;;;;;;;;;;;;5129327;27;1266;-74
2022/04/16 01:12:59;;;;;;;;;;;;;;;;;;5114827;27;1123;-74
2022/04/16 01:15:25;;;;;;;;;;;;;;;;;;5117824;27;1143;-74
2022/04/16 01:17:51;;;;;;;;;;;;;;;;;;5127804;27;1375;-74
2022/04/16 01:20:17;;;;;;;;;;;;;;;;;;5126735;27;1260;-74
2022/04/16 01:22:43;;;;;;;;;;;;;;;;;;5092244;28;1296;-74
2022/04/16 01:25:08;;;;;;;;;;;;;;;;;;5108490;27;1259;-75
2022/04/16 01:27:35;;;;;;;;;;;;;;;;;;5122181;27;1881;-74
2022/04/16 01:30:02;;;;;;;;;;;;;;;;;;5127421;27;1433;-74
2022/04/16 01:32:28;;;;;;;;;;;;;;;;;;5131057;27;1198;-74
2022/04/16 01:34:53;;;;;;;;;;;;;;;;;;5121773;27;1360;-74
2022/04/16 01:37:18;;;;;;;;;;;;;;;;;;5116887;27;1067;-75
2022/04/16 01:39:46;;;;;;;;;;;;;;;;;;5089703;28;1278;-74
2022/04/16 01:42:12;;;;;;;;;;;;;;;;;;5101879;27;1172;-74
2022/04/16 01:44:37;;;;;;;;;;;;;;;;;;5115507;27;1199;-73
2022/04/16 01:47:03;;;;;;;;;;;;;;;;;;5103963;28;1915;-74
2022/04/16 01:49:28;;;;;;;;;;;;;;;;;;5108738;28;1198;-73
2022/04/16 01:51:54;;;;;;;;;;;;;;;;;;5104412;28;1187;-74
2022/04/16 01:54:21;;;;;;;;;;;;;;;;;;5121967;27;1242;-73
2022/04/16 01:56:46;;;;;;;;;;;;;;;;;;5107375;27;1260;-72
2022/04/16 01:59:11;;;;;;;;;;;;;;;;;;5106235;28;1318;-74
2022/04/16 02:01:36;;;;;;;;;;;;;;;;;;5089188;28;1287;-74
2022/04/16 02:04:02;;;;;;;;;;;;;;;;;;5106647;28;1213;-74
2022/04/16 02:06:27;;;;;;;;;;;;;;;;;;5108057;28;1297;-74
2022/04/16 02:08:52;;;;;;;;;;;;;;;;;;5105106;28;1963;-75
2022/04/16 02:11:17;;;;;;;;;;;;;;;;;;5112974;27;1204;-75
2022/04/16 02:13:44;;;;;;;;;;;;;;;;;;5127503;27;1214;-75
2022/04/16 02:16:09;;;;;;;;;;;;;;;;;;5127751;27;1161;-75
2022/04/16 02:18:35;;;;;;;;;;;;;;;;;;5130652;27;1238;-74
2022/04/16 02:21:00;;;;;;;;;;;;;;;;;;5098512;27;1189;-73
2022/04/16 02:23:25;;;;;;;;;;;;;;;;;;5124028;27;1217;-73
2022/04/16 02:25:53;;;;;;;;;;;;;;;;;;5104868;28;1205;-74
2022/04/16 02:28:21;;;;;;;;;;;;;;;;;;5105865;28;1964;-74
2022/04/16 02:30:47;;;;;;;;;;;;;;;;;;5087852;28;1337;-73
2022/04/16 02:33:12;;;;;;;;;;;;;;;;;;5108007;28;1343;-73
2022/04/16 02:35:38;;;;;;;;;;;;;;;;;;5108391;28;1160;-73
2022/04/16 02:38:04;;;;;;;;;;;;;;;;;;5094533;27;1247;-74
2022/04/16 02:40:29;;;;;;;;;;;;;;;;;;5127553;27;1349;-74
2022/04/16 02:42:54;;;;;;;;;;;;;;;;;;5103924;27;1254;-73
2022/04/16 02:48:04;;;;;;;;;;;;;;;;;;5119710;27;1917;-74
2022/04/16 02:50:31;;;;;;;;;;;;;;;;;;5107713;27;1170;-74
2022/04/16 02:52:58;;;;;;;;;;;;;;;;;;5123046;27;1320;-73
2022/04/16 02:55:23;;;;;;;;;;;;;;;;;;5127952;27;1300;-73
2022/04/16 02:57:49;;;;;;;;;;;;;;;;;;5132180;27;1299;-74
2022/04/16 03:00:15;;;;;;;;;;;;;;;;;;5120923;27;1513;-74
2022/04/16 03:02:41;;;;;;;;;;;;;;;;;;5107458;28;1162;-74
2022/04/16 03:05:07;;;;;;;;;;;;;;;;;;5106205;28;1242;-74
2022/04/16 03:07:38;;;;;;;;;;;;;;;;;;5105687;28;1894;-74
2022/04/16 03:10:04;;;;;;;;;;;;;;;;;;5125105;27;1225;-73
2022/04/16 03:12:46;;;;;;;;;;;;;;;;;;5114523;27;1302;-74
2022/04/16 03:17:56;;;;;;;;;;;;;;;;;;5126767;27;1019;-74
2022/04/16 03:20:21;;;;;;;;;;;;;;;;;;5107552;28;1210;-74
2022/04/16 03:22:46;;;;;;;;;;;;;;;;;;5117484;27;1273;-74
2022/04/16 03:25:12;;;;;;;;;;;;;;;;;;5105697;27;1241;-73
2022/04/16 03:27:37;;;;;;;;;;;;;;;;;;5121885;27;1948;-74
2022/04/16 03:30:06;;;;;;;;;;;;;;;;;;5123130;27;1223;-73
2022/04/16 03:32:31;;;;;;;;;;;;;;;;;;5127789;27;1147;-74
2022/04/16 03:34:57;;;;;;;;;;;;;;;;;;5108898;27;1332;-73
2022/04/16 03:37:24;;;;;;;;;;;;;;;;;;5108994;27;1212;-75
2022/04/16 03:39:51;;;;;;;;;;;;;;;;;;5125928;27;1317;-75
2022/04/16 03:42:18;;;;;;;;;;;;;;;;;;5104227;27;1286;-73
2022/04/16 03:44:43;;;;;;;;;;;;;;;;;;5123227;27;1307;-73
2022/04/16 03:47:10;;;;;;;;;;;;;;;;;;5125297;27;1988;-73
2022/04/16 03:49:35;;;;;;;;;;;;;;;;;;5093801;28;1186;-72
2022/04/16 03:52:00;;;;;;;;;;;;;;;;;;5087346;28;1342;-73
2022/04/16 03:59:59;;;;;;;;;;;;;;;;;;5118574;27;1023;-74
2022/04/16 04:02:25;;;;;;;;;;;;;;;;;;5124060;27;1088;-75
2022/04/16 04:04:54;;;;;;;;;;;;;;;;;;5107403;27;1301;-73
2022/04/16 04:07:19;;;;;;;;;;;;;;;;;;5129701;27;1893;-74
2022/04/16 04:09:45;;;;;;;;;;;;;;;;;;5109656;27;1318;-73
2022/04/16 04:12:11;;;;;;;;;;;;;;;;;;5109421;27;1357;-73
2022/04/16 04:14:39;;;;;;;;;;;;;;;;;;5107941;27;1228;-73
2022/04/16 04:17:08;;;;;;;;;;;;;;;;;;5125037;27;1185;-73
2022/04/16 04:19:35;;;;;;;;;;;;;;;;;;5107950;27;1206;-74
2022/04/16 04:22:00;;;;;;;;;;;;;;;;;;5104559;28;1148;-74
2022/04/16 04:24:25;;;;;;;;;;;;;;;;;;5125395;27;1202;-74
2022/04/16 04:26:54;;;;;;;;;;;;;;;;;;5099325;28;1175;-73
2022/04/16 04:29:19;;;;;;;;;;;;;;;;;;5119947;27;1885;-74
2022/04/16 04:31:44;;;;;;;;;;;;;;;;;;5125876;27;1194;-73
2022/04/16 04:34:09;;;;;;;;;;;;;;;;;;5124485;27;1311;-74
2022/04/16 04:36:35;;;;;;;;;;;;;;;;;;5127540;27;1171;-74
2022/04/16 04:39:00;;;;;;;;;;;;;;;;;;5109580;27;1234;-75
2022/04/16 04:41:25;;;;;;;;;;;;;;;;;;5093164;28;1235;-74
2022/04/16 04:43:50;;;;;;;;;;;;;;;;;;5086222;28;1195;-74
2022/04/16 04:46:16;;;;;;;;;;;;;;;;;;5105713;28;1270;-74
2022/04/16 04:48:41;;;;;;;;;;;;;;;;;;5106399;28;1916;-74
2022/04/16 04:51:06;;;;;;;;;;;;;;;;;;5106998;28;1152;-74
2022/04/16 04:53:31;;;;;;;;;;;;;;;;;;5106917;28;1206;-74
2022/04/16 04:56:00;;;;;;;;;;;;;;;;;;5117267;27;1151;-74
2022/04/16 04:58:25;;;;;;;;;;;;;;;;;;5108214;28;1350;-73
2022/04/16 05:00:50;;;;;;;;;;;;;;;;;;5124479;27;1099;-73
2022/04/16 05:03:16;;;;;;;;;;;;;;;;;;5126045;27;1218;-73
2022/04/16 05:05:41;;;;;;;;;;;;;;;;;;5127262;28;1149;-73
2022/04/16 05:08:06;;;;;;;;;;;;;;;;;;5124806;27;1929;-73
2022/04/16 05:10:31;;;;;;;;;;;;;;;;;;5100441;28;1173;-73
2022/04/16 05:12:58;;;;;;;;;;;;;;;;;;5101564;28;1072;-74
2022/04/16 05:15:23;;;;;;;;;;;;;;;;;;5103422;28;1397;-73
2022/04/16 05:17:48;;;;;;;;;;;;;;;;;;5106434;28;1157;-73
2022/04/16 05:20:13;;;;;;;;;;;;;;;;;;5105282;28;1167;-73
2022/04/16 05:22:39;;;;;;;;;;;;;;;;;;5106645;28;1318;-73
2022/04/16 05:25:04;;;;;;;;;;;;;;;;;;5114115;28;1160;-73
2022/04/16 05:27:30;;;;;;;;;;;;;;;;;;5099875;28;1987;-73
2022/04/16 05:30:12;;;;;;;;;;;;;;;;;;5121194;27;1013;-74
2022/04/16 05:32:39;;;;;;;;;;;;;;;;;;5126840;27;1147;-73
2022/04/16 05:35:05;;;;;;;;;;;;;;;;;;5125152;28;1173;-74
2022/04/16 05:37:31;;;;;;;;;;;;;;;;;;5126603;27;1229;-73
2022/04/16 05:39:56;;;;;;;;;;;;;;;;;;5126271;27;1130;-73
2022/04/16 05:42:22;;;;;;;;;;;;;;;;;;5120167;28;1096;-74
2022/04/16 05:44:47;;;;;;;;;;;;;;;;;;5123319;28;1282;-74
2022/04/16 05:47:13;;;;;;;;;;;;;;;;;;5106784;27;1981;-74
2022/04/16 05:49:38;;;;;;;;;;;;;;;;;;5105445;28;1152;-75
2022/04/16 05:52:03;;;;;;;;;;;;;;;;;;5124834;27;905;-74
2022/04/16 05:54:29;;;;;;;;;;;;;;;;;;5108191;27;1314;-74
2022/04/16 05:56:55;;;;;;;;;;;;;;;;;;5127140;27;1112;-72
2022/04/16 05:59:22;;;;;;;;;;;;;;;;;;5128117;27;1043;-73
2022/04/16 06:01:48;;;;;;;;;;;;;;;;;;5127765;27;1297;-74
2022/04/16 06:04:13;;;;;;;;;;;;;;;;;;5125042;27;1135;-73
2022/04/16 06:06:39;;;;;;;;;;;;;;;;;;5094954;28;1266;-74
2022/04/16 06:09:04;;;;;;;;;;;;;;;;;;5109417;28;1894;-73
2022/04/16 06:11:32;;;;;;;;;;;;;;;;;;5106565;27;1185;-72
2022/04/16 06:13:57;;;;;;;;;;;;;;;;;;5124616;27;1199;-73
2022/04/16 06:16:22;;;;;;;;;;;;;;;;;;5124335;27;1151;-74
2022/04/16 06:18:47;;;;;;;;;;;;;;;;;;5130503;27;1234;-74
2022/04/16 06:21:12;;;;;;;;;;;;;;;;;;5124724;27;1159;-74
2022/04/16 06:23:38;;;;;;;;;;;;;;;;;;5115317;27;1155;-77
2022/04/16 06:26:23;;;;;;;;;;;;;;;;;;5113664;27;1203;-77
2022/04/16 06:28:48;;;;;;;;;;;;;;;;;;5121165;27;1930;-77
2022/04/16 06:31:14;;;;;;;;;;;;;;;;;;5124520;27;1170;-76
2022/04/16 06:33:39;;;;;;;;;;;;;;;;;;5125991;27;1265;-78
2022/04/16 06:36:10;;;;;;;;;;;;;;;;;;5106103;27;1208;-78
2022/04/16 06:38:36;;;;;;;;;;;;;;;;;;5110233;27;1227;-78
2022/04/16 06:41:02;;;;;;;;;;;;;;;;;;5096959;28;1153;-78
2022/04/16 06:43:27;;;;;;;;;;;;;;;;;;5084309;28;1258;-77
2022/04/16 06:45:52;;;;;;;;;;;;;;;;;;5087255;28;1170;-77
2022/04/16 06:48:17;;;;;;;;;;;;;;;;;;5104211;28;1917;-77
2022/04/16 06:50:43;;;;;;;;;;;;;;;;;;5091439;27;1211;-78
2022/04/16 06:53:11;;;;;;;;;;;;;;;;;;5125465;27;1273;-79
2022/04/16 06:55:36;;;;;;;;;;;;;;;;;;5128561;27;1178;-78
2022/04/16 06:58:01;;;;;;;;;;;;;;;;;;5100276;28;1177;-78
2022/04/16 07:00:27;;;;;;;;;;;;;;;;;;5118055;27;1218;-78
2022/04/16 07:02:52;;;;;;;;;;;;;;;;;;5126578;27;1143;-78
2022/04/16 07:05:17;;;;;;;;;;;;;;;;;;5127186;27;1261;-78
2022/04/16 07:07:42;;;;;;;;;;;;;;;;;;5095993;28;1957;-78
2022/04/16 07:10:09;;;;;;;;;;;;;;;;;;5126104;27;1167;-78
2022/04/16 07:12:35;;;;;;;;;;;;;;;;;;5124496;27;1343;-78
2022/04/16 07:15:00;;;;;;;;;;;;;;;;;;5109526;27;1317;-78
2022/04/16 07:17:27;;;;;;;;;;;;;;;;;;5107752;27;1279;-78
2022/04/16 07:19:54;;;;;;;;;;;;;;;;;;5128116;27;1282;-78
2022/04/16 07:22:20;;;;;;;;;;;;;;;;;;5126141;27;1267;-78
2022/04/16 07:24:48;;;;;;;;;;;;;;;;;;5128992;27;1348;-77
2022/04/16 07:27:13;;;;;;;;;;;;;;;;;;5106664;27;1954;-76
2022/04/16 07:29:38;;;;;;;;;;;;;;;;;;5124061;27;1259;-81
2022/04/16 07:32:06;;;;;;;;;;;;;;;;;;5109439;27;1542;-78
2022/04/16 07:34:31;;;;;;;;;;;;;;;;;;5106896;27;1268;-79
2022/04/16 07:36:56;;;;;;;;;;;;;;;;;;5108033;28;850;-78
2022/04/16 07:39:21;;;;;;;;;;;;;;;;;;5105320;28;1299;-77
2022/04/16 07:41:49;;;;;;;;;;;;;;;;;;5103316;28;770;-78
2022/04/16 07:44:14;;;;;;;;;;;;;;;;;;5104774;28;818;-78
2022/04/16 07:46:43;;;;;;;;;;;;;;;;;;5107488;28;1309;-78
2022/04/16 07:49:08;;;;;;;;;;;;;;;;;;5107807;28;1971;-78
2022/04/16 07:51:33;;;;;;;;;;;;;;;;;;5088484;28;1179;-78
2022/04/16 07:53:59;;;;;;;;;;;;;;;;;;5090971;28;1261;-79
2022/04/16 07:56:25;;;;;;;;;;;;;;;;;;5101850;28;1273;-78
2022/04/16 07:58:51;;;;;;;;;;;;;;;;;;5104070;28;1281;-78
2022/04/16 08:01:16;;;;;;;;;;;;;;;;;;5115425;27;1207;-85
2022/04/16 08:03:42;;;;;;;;;;;;;;;;;;5126410;27;1293;-78
2022/04/16 08:06:07;;;;;;;;;;;;;;;;;;5118190;27;1252;-80
2022/04/16 08:08:32;;;;;;;;;;;;;;;;;;5113954;27;1944;-78
2022/04/16 08:10:58;;;;;;;;;;;;;;;;;;5105948;28;1202;-78
2022/04/16 08:13:23;;;;;;;;;;;;;;;;;;5113392;27;1223;-79
2022/04/16 08:15:49;;;;;;;;;;;;;;;;;;5119661;27;1160;-78
2022/04/16 08:18:17;;;;;;;;;;;;;;;;;;5106904;27;1358;-77
2022/04/16 08:20:43;;;;;;;;;;;;;;;;;;5125723;27;1258;-79
2022/04/16 08:23:08;;;;;;;;;;;;;;;;;;5124597;27;1218;-78
2022/04/16 08:28:00;;;;;;;;;;;;;;;;;;5127619;27;1948;-79
2022/04/16 08:30:25;;;;;;;;;;;;;;;;;;5115156;27;1128;-79
2022/04/16 08:32:51;;;;;;;;;;;;;;;;;;5113576;27;1293;-79
2022/04/16 08:35:18;;;;;;;;;;;;;;;;;;5131693;27;1227;-78
2022/04/16 08:37:43;;;;;;;;;;;;;;;;;;5135853;27;1310;-78
2022/04/16 08:40:12;;;;;;;;;;;;;;;;;;5129090;27;1178;-80
2022/04/16 08:42:38;;;;;;;;;;;;;;;;;;5126528;27;1151;-78
2022/04/16 08:45:04;;;;;;;;;;;;;;;;;;5130401;27;1286;-78
2022/04/16 08:47:30;;;;;;;;;;;;;;;;;;5127320;27;1897;-78
2022/04/16 08:49:55;;;;;;;;;;;;;;;;;;5129877;27;1235;-78
2022/04/16 08:52:22;;;;;;;;;;;;;;;;;;5128829;27;1215;-78
2022/04/16 08:54:47;;;;;;;;;;;;;;;;;;5130208;27;1253;-78
2022/04/16 08:57:13;;;;;;;;;;;;;;;;;;5108429;28;1194;-78
2022/04/16 08:59:38;;;;;;;;;;;;;;;;;;5119971;27;1164;-79
2022/04/16 09:02:04;;;;;;;;;;;;;;;;;;5091471;28;1191;-78
2022/04/16 09:04:32;;;;;;;;;;;;;;;;;;5110893;28;1226;-79
2022/04/16 09:06:59;;;;;;;;;;;;;;;;;;5111416;27;1131;-79
2022/04/16 09:09:24;;;;;;;;;;;;;;;;;;5106982;28;1894;-79
2022/04/16 09:11:49;;;;;;;;;;;;;;;;;;5084405;28;1675;-78
2022/04/16 09:14:24;;;;;;;;;;;;;;;;;;5085838;28;1331;-76
2022/04/16 09:16:50;;;;;;;;;;;;;;;;;;5107337;28;1216;-78
2022/04/16 09:19:21;;;;;;;;;;;;;;;;;;5120996;28;1189;-77
2022/04/16 09:21:47;;;;;;;;;;;;;;;;;;5120727;27;1131;-78
2022/04/16 09:24:12;;;;;;;;;;;;;;;;;;5112220;28;1267;-79
2022/04/16 09:26:38;;;;;;;;;;;;;;;;;;5118133;28;1157;-79
2022/04/16 09:29:08;;;;;;;;;;;;;;;;;;5121690;27;1889;-78
2022/04/16 09:31:34;;;;;;;;;;;;;;;;;;5127537;27;1153;-79
2022/04/16 09:33:59;;;;;;;;;;;;;;;;;;5129598;27;1404;-78
2022/04/16 09:36:25;;;;;;;;;;;;;;;;;;5125663;27;1191;-77
2022/04/16 09:38:59;;;;;;;;;;;;;;;;;;5129165;27;1170;-78
2022/04/16 09:41:29;;;;;;;;;;;;;;;;;;5123225;27;1351;-78
2022/04/16 09:43:54;;;;;;;;;;;;;;;;;;5124008;27;1149;-78
2022/04/16 09:46:26;;;;;;;;;;;;;;;;;;5088249;28;1271;-77
2022/04/16 09:48:51;;;;;;;;;;;;;;;;;;5113532;27;1917;-78
2022/04/16 09:51:25;;;;;;;;;;;;;;;;;;5106910;28;1289;-78
2022/04/16 09:53:53;;;;;;;;;;;;;;;;;;5112769;27;1095;-78
2022/04/16 09:56:29;;;;;;;;;;;;;;;;;;5110546;27;1266;-80
2022/04/16 09:58:55;;;;;;;;;;;;;;;;;;5108128;28;1266;-77
2022/04/16 10:01:27;;;;;;;;;;;;;;;;;;5116971;27;1191;-77
2022/04/16 10:03:52;;;;;;;;;;;;;;;;;;5127015;27;1126;-79
2022/04/16 10:06:24;;;;;;;;;;;;;;;;;;5128656;27;1181;-77
2022/04/16 10:08:51;;;;;;;;;;;;;;;;;;5128840;27;1952;-78
2022/04/16 10:11:42;;;;;;;;;;;;;;;;;;5114145;27;1348;-77
2022/04/16 10:14:10;;;;;;;;;;;;;;;;;;5128144;27;1264;-78
2022/04/16 10:16:50;;;;;;;;;;;;;;;;;;5129777;27;1123;-76
2022/04/16 10:19:16;;;;;;;;;;;;;;;;;;5131073;27;1063;-78
2022/04/16 10:21:42;;;;;;;;;;;;;;;;;;5126061;27;1278;-78
2022/04/16 10:24:07;;;;;;;;;;;;;;;;;;5130154;27;1194;-79
2022/04/16 10:26:37;;;;;;;;;;;;;;;;;;5101168;27;1328;-78
2022/04/16 10:29:03;;;;;;;;;;;;;;;;;;5122006;27;1959;-77
2022/04/16 10:31:33;;;;;;;;;;;;;;;;;;5112937;27;1332;-80
2022/04/16 10:34:05;;;;;;;;;;;;;;;;;;5130134;27;1131;-80
2022/04/16 10:36:37;;;;;;;;;;;;;;;;;;5127445;27;1248;-79
2022/04/16 10:39:12;;;;;;;;;;;;;;;;;;5121684;27;1174;-79
2022/04/16 10:41:37;;;;;;;;;;;;;;;;;;5122151;27;1368;-80
2022/04/16 10:44:07;;;;;;;;;;;;;;;;;;5120808;27;1270;-79
2022/04/16 10:46:40;;;;;;;;;;;;;;;;;;5106251;27;1107;-81
2022/04/16 10:49:10;;;;;;;;;;;;;;;;;;5112957;27;1955;-80
2022/04/16 10:51:35;;;;;;;;;;;;;;;;;;5110038;27;1082;-80
2022/04/16 10:54:08;;;;;;;;;;;;;;;;;;5113535;27;1309;-78
2022/04/16 10:56:39;;;;;;;;;;;;;;;;;;5125322;27;1191;-80
2022/04/16 10:59:04;;;;;;;;;;;;;;;;;;5123451;27;1344;-81
2022/04/16 11:01:30;;;;;;;;;;;;;;;;;;5127042;27;1172;-79
2022/04/16 11:03:56;;;;;;;;;;;;;;;;;;5095877;27;1229;-80
2022/04/16 11:06:31;;;;;;;;;;;;;;;;;;5130975;27;1162;-81
2022/04/16 11:08:57;;;;;;;;;;;;;;;;;;5124390;27;1919;-79
2022/04/16 11:11:30;;;;;;;;;;;;;;;;;;5119533;27;1283;-80
2022/04/16 11:13:57;;;;;;;;;;;;;;;;;;5090757;28;1418;-81
2022/04/16 11:16:23;;;;;;;;;;;;;;;;;;5114500;27;1124;-81
2022/04/16 11:18:51;;;;;;;;;;;;;;;;;;5116938;27;1169;-82
2022/04/16 11:21:18;;;;;;;;;;;;;;;;;;5102936;27;1703;-81
2022/04/16 11:23:47;;;;;;;;;;;;;;;;;;5120473;27;1266;-78
2022/04/16 11:34:50;;;;;;;;;;;;;;;;;;5119815;27;1277;-81
2022/04/16 11:37:16;;;;;;;;;;;;;;;;;;5104827;28;1183;-82
2022/04/16 11:39:41;;;;;;;;;;;;;;;;;;5100299;27;1234;-85
2022/04/16 11:42:10;;;;;;;;;;;;;;;;;;5112725;27;1219;-79
2022/04/16 11:44:38;;;;;;;;;;;;;;;;;;5103707;27;1316;-82
2022/04/16 11:47:36;;;;;;;;;;;;;;;;;;5102099;27;1351;-81
2022/04/16 11:50:02;;;;;;;;;;;;;;;;;;5120419;27;1320;-77
2022/04/16 11:52:33;;;;;;;;;;;;;;;;;;5113561;27;1245;-79
2022/04/16 11:55:03;;;;;;;;;;;;;;;;;;5120777;27;1324;-77
2022/04/16 11:57:31;;;;;;;;;;;;;;;;;;5114630;27;1313;-76
2022/04/16 12:00:02;;;;;;;;;;;;;;;;;;5123634;27;1231;-78
2022/04/16 12:02:35;;;;;;;;;;;;;;;;;;5124571;27;1189;-76
2022/04/16 12:05:13;;;;;;;;;;;;;;;;;;5114230;27;1384;-76
2022/04/16 12:07:57;;;;;;;;;;;;;;;;;;5085413;28;1902;-77
2022/04/16 12:10:24;;;;;;;;;;;;;;;;;;5124566;27;1191;-75
2022/04/16 12:12:52;;;;;;;;;;;;;;;;;;5118276;27;1209;-77
2022/04/16 12:15:24;;;;;;;;;;;;;;;;;;5123124;27;1192;-78
2022/04/16 12:17:54;;;;;;;;;;;;;;;;;;5124185;27;1235;-77
2022/04/16 12:20:20;;;;;;;;;;;;;;;;;;5110340;27;1131;-77
2022/04/16 12:22:54;;;;;;;;;;;;;;;;;;5102061;28;1383;-77
2022/04/16 12:25:20;;;;;;;;;;;;;;;;;;5106444;28;900;-76
2022/04/16 12:27:50;;;;;;;;;;;;;;;;;;5096914;28;1955;-77
2022/04/16 12:30:24;;;;;;;;;;;;;;;;;;5103024;28;1161;-77
2022/04/16 12:32:55;;;;;;;;;;;;;;;;;;5100977;28;1456;-76
2022/04/16 12:35:21;;;;;;;;;;;;;;;;;;5106683;28;880;-77
2022/04/16 12:37:46;;;;;;;;;;;;;;;;;;5102357;28;786;-78
2022/04/16 12:40:11;;;;;;;;;;;;;;;;;;5087467;28;1282;-77
2022/04/16 12:42:37;;;;;;;;;;;;;;;;;;5080913;28;1431;-76
2022/04/16 12:45:02;;;;;;;;;;;;;;;;;;5102409;28;1293;-77
2022/04/16 12:47:28;;;;;;;;;;;;;;;;;;5106258;28;1909;-77
2022/04/16 12:49:53;;;;;;;;;;;;;;;;;;5086617;28;1701;-77
2022/04/16 12:52:18;;;;;;;;;;;;;;;;;;5104129;28;1361;-76
2022/04/16 12:54:44;;;;;;;;;;;;;;;;;;5102365;28;1206;-77
2022/04/16 12:57:09;;;;;;;;;;;;;;;;;;5081469;28;1214;-77
2022/04/16 12:59:38;;;;;;;;;;;;;;;;;;5101486;28;1159;-77
2022/04/16 13:02:03;;;;;;;;;;;;;;;;;;5104475;28;1159;-76
2022/04/16 13:04:30;;;;;;;;;;;;;;;;;;5102335;28;1290;-76
2022/04/16 13:06:56;;;;;;;;;;;;;;;;;;5100485;28;1094;-76
2022/04/16 13:09:21;;;;;;;;;;;;;;;;;;5088295;28;1948;-76
2022/04/16 13:11:49;;;;;;;;;;;;;;;;;;5088953;28;1346;-76
2022/04/16 13:14:15;;;;;;;;;;;;;;;;;;5108829;28;1461;-77
2022/04/16 13:16:40;;;;;;;;;;;;;;;;;;5099948;28;1140;-76
2022/04/16 13:19:05;;;;;;;;;;;;;;;;;;5104931;28;1276;-77
2022/04/16 13:21:32;;;;;;;;;;;;;;;;;;5102719;28;1464;-77
2022/04/16 13:23:58;;;;;;;;;;;;;;;;;;5108253;28;1060;-77
2022/04/16 13:26:23;;;;;;;;;;;;;;;;;;5119562;28;1275;-78
2022/04/16 13:28:50;;;;;;;;;;;;;;;;;;5122189;28;1948;-76
2022/04/16 13:31:15;;;;;;;;;;;;;;;;;;5095971;28;1170;-78
2022/04/16 13:33:45;;;;;;;;;;;;;;;;;;5102039;28;1290;-77
2022/04/16 13:36:13;;;;;;;;;;;;;;;;;;5087365;28;1142;-78
2022/04/16 13:38:43;;;;;;;;;;;;;;;;;;5103081;28;1288;-77
2022/04/16 13:43:58;;;;;;;;;;;;;;;;;;5120894;28;1195;-78
2022/04/16 13:46:23;;;;;;;;;;;;;;;;;;5125986;27;1155;-78
2022/04/16 13:48:49;;;;;;;;;;;;;;;;;;5121709;28;1902;-76
2022/04/16 13:51:14;;;;;;;;;;;;;;;;;;5105350;28;1111;-76
2022/04/16 13:53:47;;;;;;;;;;;;;;;;;;5086086;28;1359;-77
2022/04/16 13:56:13;;;;;;;;;;;;;;;;;;5118425;28;1288;-78
2022/04/16 13:58:51;;;;;;;;;;;;;;;;;;5122629;28;1443;-81
2022/04/16 14:01:17;;;;;;;;;;;;;;;;;;5121763;28;1201;-75
2022/04/16 14:03:46;;;;;;;;;;;;;;;;;;5103096;28;1103;-77
2022/04/16 14:06:12;;;;;;;;;;;;;;;;;;5120949;28;1163;-77
2022/04/16 14:08:50;;;;;;;;;;;;;;;;;;5101781;28;1882;-79
2022/04/16 14:11:16;;;;;;;;;;;;;;;;;;5090054;28;1153;-77
2022/04/16 14:13:51;;;;;;;;;;;;;;;;;;5089369;28;1299;-78
2022/04/16 14:16:17;;;;;;;;;;;;;;;;;;5107644;28;1349;-76
2022/04/16 14:18:46;;;;;;;;;;;;;;;;;;5100750;28;1243;-78
2022/04/16 14:21:11;;;;;;;;;;;;;;;;;;5099961;28;1216;-77
2022/04/16 14:23:46;;;;;;;;;;;;;;;;;;5100197;28;1262;-79
2022/04/16 14:26:15;;;;;;;;;;;;;;;;;;5097550;27;1499;-76
2022/04/16 14:28:49;;;;;;;;;;;;;;;;;;5110606;27;1932;-77
2022/04/16 14:31:17;;;;;;;;;;;;;;;;;;5093700;27;1221;-76
2022/04/16 14:33:49;;;;;;;;;;;;;;;;;;5111732;27;1332;-78
2022/04/16 14:36:15;;;;;;;;;;;;;;;;;;5100961;28;1264;-75
2022/04/16 14:38:46;;;;;;;;;;;;;;;;;;5103857;27;1301;-76
2022/04/16 14:41:16;;;;;;;;;;;;;;;;;;5094805;27;1484;-80
2022/04/16 14:43:48;;;;;;;;;;;;;;;;;;5114692;27;1184;-75
2022/04/16 14:46:17;;;;;;;;;;;;;;;;;;5118831;27;1342;-78
2022/04/16 14:48:55;;;;;;;;;;;;;;;;;;5110213;27;1898;-77
2022/04/16 14:51:24;;;;;;;;;;;;;;;;;;5117369;27;1099;-79
2022/04/16 14:53:49;;;;;;;;;;;;;;;;;;5117526;27;1376;-78
2022/04/16 14:56:18;;;;;;;;;;;;;;;;;;5109725;27;1152;-79
2022/04/16 14:58:52;;;;;;;;;;;;;;;;;;5107563;27;1324;-77
2022/04/16 15:01:24;;;;;;;;;;;;;;;;;;5111449;27;1436;-78
2022/04/16 15:03:52;;;;;;;;;;;;;;;;;;5108166;27;1136;-78
2022/04/16 15:06:17;;;;;;;;;;;;;;;;;;5093115;28;1207;-79
2022/04/16 15:08:52;;;;;;;;;;;;;;;;;;5115602;27;1893;-79
2022/04/16 15:11:18;;;;;;;;;;;;;;;;;;5102279;27;1375;-77
2022/04/16 15:13:56;;;;;;;;;;;;;;;;;;5108579;27;1141;-76
2022/04/16 15:16:21;;;;;;;;;;;;;;;;;;5105698;27;1237;-75
2022/04/16 15:18:49;;;;;;;;;;;;;;;;;;5092804;27;1430;-78
2022/04/16 15:21:14;;;;;;;;;;;;;;;;;;5105272;27;1217;-77
2022/04/16 15:23:40;;;;;;;;;;;;;;;;;;5089220;28;1263;-77
2022/04/16 15:26:11;;;;;;;;;;;;;;;;;;5084230;28;1309;-79
2022/04/16 15:28:37;;;;;;;;;;;;;;;;;;5113649;27;1939;-79
2022/04/16 15:31:10;;;;;;;;;;;;;;;;;;5114574;27;1266;-79
2022/04/16 15:33:36;;;;;;;;;;;;;;;;;;5122402;27;1293;-80
2022/04/16 15:36:02;;;;;;;;;;;;;;;;;;5121119;27;1391;-79
2022/04/16 15:38:29;;;;;;;;;;;;;;;;;;5111586;27;1163;-76
2022/04/16 15:40:58;;;;;;;;;;;;;;;;;;5094733;28;1172;-78
2022/04/16 15:43:23;;;;;;;;;;;;;;;;;;5104413;27;1241;-75
2022/04/16 15:45:54;;;;;;;;;;;;;;;;;;5112922;27;1194;-80
2022/04/16 15:48:19;;;;;;;;;;;;;;;;;;5102151;27;1938;-80
2022/04/16 15:50:45;;;;;;;;;;;;;;;;;;5088109;27;1208;-80
2022/04/16 15:53:10;;;;;;;;;;;;;;;;;;5083425;28;1204;-77
2022/04/16 15:55:36;;;;;;;;;;;;;;;;;;5103146;28;1151;-83
2022/04/16 15:58:01;;;;;;;;;;;;;;;;;;5095729;28;1232;-75
2022/04/16 16:00:26;;;;;;;;;;;;;;;;;;5095559;27;1221;-77
2022/04/16 16:03:00;;;;;;;;;;;;;;;;;;5087521;27;1212;-76
2022/04/16 16:05:26;;;;;;;;;;;;;;;;;;5107062;27;1119;-73
2022/04/16 16:07:54;;;;;;;;;;;;;;;;;;5101562;27;1906;-72
2022/04/16 16:10:19;;;;;;;;;;;;;;;;;;5104591;27;1354;-73
2022/04/16 16:12:45;;;;;;;;;;;;;;;;;;5121072;27;1234;-74
2022/04/16 16:15:16;;;;;;;;;;;;;;;;;;5123512;27;1024;-76
2022/04/16 16:17:44;;;;;;;;;;;;;;;;;;5122508;27;1156;-75
2022/04/16 16:20:12;;;;;;;;;;;;;;;;;;5123136;27;1213;-75
2022/04/16 16:22:37;;;;;;;;;;;;;;;;;;5124246;27;1400;-75
2022/04/16 16:25:03;;;;;;;;;;;;;;;;;;5124261;27;1247;-76
2022/04/16 16:27:28;;;;;;;;;;;;;;;;;;5104925;27;1897;-73
2022/04/16 16:29:56;;;;;;;;;;;;;;;;;;5096698;27;1309;-74
2022/04/16 16:32:21;;;;;;;;;;;;;;;;;;5120064;27;1682;-73
2022/04/16 16:34:46;;;;;;;;;;;;;;;;;;5109642;27;1316;-73
2022/04/16 16:37:12;;;;;;;;;;;;;;;;;;5083594;28;1241;-73
2022/04/16 16:39:37;;;;;;;;;;;;;;;;;;5088357;28;1284;-73
2022/04/16 16:42:13;;;;;;;;;;;;;;;;;;5081202;28;1191;-73
2022/04/16 16:44:39;;;;;;;;;;;;;;;;;;5089965;28;1312;-75
2022/04/16 16:47:04;;;;;;;;;;;;;;;;;;5084095;27;1175;-74
2022/04/16 16:49:29;;;;;;;;;;;;;;;;;;5124414;27;1909;-74
2022/04/16 16:51:55;;;;;;;;;;;;;;;;;;5103179;28;1167;-74
2022/04/16 16:54:20;;;;;;;;;;;;;;;;;;5105369;28;1444;-75
2022/04/16 16:56:46;;;;;;;;;;;;;;;;;;5102583;28;1080;-74
2022/04/16 16:59:11;;;;;;;;;;;;;;;;;;5101664;28;1028;-73
2022/04/16 17:01:37;;;;;;;;;;;;;;;;;;5101129;28;1167;-73
2022/04/16 17:06:46;;;;;;;;;;;;;;;;;;5125109;27;1019;-74
2022/04/16 17:09:11;;;;;;;;;;;;;;;;;;5087059;28;2083;-72
2022/04/16 17:11:36;;;;;;;;;;;;;;;;;;5102611;28;1206;-72
2022/04/16 17:19:30;;;;;;;;;;;;;;;;;;5115484;28;1063;-73
2022/04/16 17:22:02;;;;;;;;;;;;;;;;;;5103822;28;1196;-73
2022/04/16 17:24:27;;;;;;;;;;;;;;;;;;5121414;28;1132;-72
2022/04/16 17:26:53;;;;;;;;;;;;;;;;;;5105066;28;1184;-71
2022/04/16 17:29:18;;;;;;;;;;;;;;;;;;5120656;28;1894;-74
2022/04/16 17:31:48;;;;;;;;;;;;;;;;;;5104018;28;1220;-75
2022/04/16 17:34:13;;;;;;;;;;;;;;;;;;5121252;28;1227;-75
2022/04/16 17:36:39;;;;;;;;;;;;;;;;;;5121899;28;1128;-74